sensor_id;sensor_type;location;lat;lon;timestamp;temperature;humidity
72772;SHT30;60894;42.544;1.516;2023-06-22T00:01:17;18.49;64.77
72772;SHT30;60894;42.544;1.516;2023-06-22T00:03:44;18.56;63.71
72772;SHT30;60894;42.544;1.516;2023-06-22T00:06:10;18.49;64.42
72772;SHT30;60894;42.544;1.516;2023-06-22T00:08:37;18.56;64.86
72772;SHT30;60894;42.544;1.516;2023-06-22T00:11:06;18.46;65.74
72772;SHT30;60894;42.544;1.516;2023-06-22T00:13:33;18.40;66.27
72772;SHT30;60894;42.544;1.516;2023-06-22T00:15:59;18.34;65.67
72772;SHT30;60894;42.544;1.516;2023-06-22T00:18:26;18.36;64.29
72772;SHT30;60894;42.544;1.516;2023-06-22T00:20:54;18.17;66.82
72772;SHT30;60894;42.544;1.516;2023-06-22T00:23:24;18.05;67.55
72772;SHT30;60894;42.544;1.516;2023-06-22T00:25:51;18.00;67.31
72772;SHT30;60894;42.544;1.516;2023-06-22T00:28:19;17.86;67.12
72772;SHT30;60894;42.544;1.516;2023-06-22T00:30:48;17.95;66.19
72772;SHT30;60894;42.544;1.516;2023-06-22T00:33:15;17.95;66.70
72772;SHT30;60894;42.544;1.516;2023-06-22T00:35:42;17.88;65.82
72772;SHT30;60894;42.544;1.516;2023-06-22T00:38:08;17.89;66.39
72772;SHT30;60894;42.544;1.516;2023-06-22T00:40:36;17.88;65.92
72772;SHT30;60894;42.544;1.516;2023-06-22T00:43:03;17.86;66.57
72772;SHT30;60894;42.544;1.516;2023-06-22T00:45:32;17.86;67.53
72772;SHT30;60894;42.544;1.516;2023-06-22T00:47:59;17.90;67.26
72772;SHT30;60894;42.544;1.516;2023-06-22T00:50:27;17.88;67.00
72772;SHT30;60894;42.544;1.516;2023-06-22T00:53:00;17.88;67.61
72772;SHT30;60894;42.544;1.516;2023-06-22T00:55:28;17.72;68.09
72772;SHT30;60894;42.544;1.516;2023-06-22T00:57:55;17.77;68.12
72772;SHT30;60894;42.544;1.516;2023-06-22T01:00:23;17.77;68.27
72772;SHT30;60894;42.544;1.516;2023-06-22T01:02:52;17.65;68.45
72772;SHT30;60894;42.544;1.516;2023-06-22T01:05:19;17.61;68.66
72772;SHT30;60894;42.544;1.516;2023-06-22T01:07:56;17.74;68.57
72772;SHT30;60894;42.544;1.516;2023-06-22T01:10:31;17.64;68.76
72772;SHT30;60894;42.544;1.516;2023-06-22T01:13:03;17.55;69.56
72772;SHT30;60894;42.544;1.516;2023-06-22T01:15:33;17.59;68.77
72772;SHT30;60894;42.544;1.516;2023-06-22T01:18:04;17.48;68.31
72772;SHT30;60894;42.544;1.516;2023-06-22T01:20:34;17.42;68.28
72772;SHT30;60894;42.544;1.516;2023-06-22T01:23:33;17.42;68.79
72772;SHT30;60894;42.544;1.516;2023-06-22T01:26:08;17.34;69.38
72772;SHT30;60894;42.544;1.516;2023-06-22T01:28:45;17.31;69.60
72772;SHT30;60894;42.544;1.516;2023-06-22T01:31:16;17.38;69.79
72772;SHT30;60894;42.544;1.516;2023-06-22T01:33:45;17.45;69.35
72772;SHT30;60894;42.544;1.516;2023-06-22T01:36:13;17.31;69.86
72772;SHT30;60894;42.544;1.516;2023-06-22T01:38:42;17.26;69.59
72772;SHT30;60894;42.544;1.516;2023-06-22T01:41:10;17.24;69.25
72772;SHT30;60894;42.544;1.516;2023-06-22T01:43:38;17.28;68.90
72772;SHT30;60894;42.544;1.516;2023-06-22T01:46:06;17.28;69.04
72772;SHT30;60894;42.544;1.516;2023-06-22T01:48:34;17.32;68.56
72772;SHT30;60894;42.544;1.516;2023-06-22T01:51:02;17.14;69.03
72772;SHT30;60894;42.544;1.516;2023-06-22T01:53:29;17.09;70.46
72772;SHT30;60894;42.544;1.516;2023-06-22T01:55:56;17.14;70.97
72772;SHT30;60894;42.544;1.516;2023-06-22T01:58:26;17.09;71.50
72772;SHT30;60894;42.544;1.516;2023-06-22T02:00:57;17.10;71.12
72772;SHT30;60894;42.544;1.516;2023-06-22T02:03:30;16.96;71.36
72772;SHT30;60894;42.544;1.516;2023-06-22T02:06:06;16.96;71.38
72772;SHT30;60894;42.544;1.516;2023-06-22T02:08:40;17.03;70.95
72772;SHT30;60894;42.544;1.516;2023-06-22T02:11:09;16.99;70.87
72772;SHT30;60894;42.544;1.516;2023-06-22T02:13:36;17.02;70.37
72772;SHT30;60894;42.544;1.516;2023-06-22T02:16:08;17.03;70.49
72772;SHT30;60894;42.544;1.516;2023-06-22T02:18:36;17.09;70.52
72772;SHT30;60894;42.544;1.516;2023-06-22T02:21:05;17.09;70.41
72772;SHT30;60894;42.544;1.516;2023-06-22T02:23:32;17.16;69.88
72772;SHT30;60894;42.544;1.516;2023-06-22T02:26:01;16.99;70.85
72772;SHT30;60894;42.544;1.516;2023-06-22T02:28:28;17.06;70.81
72772;SHT30;60894;42.544;1.516;2023-06-22T02:30:55;17.02;71.62
72772;SHT30;60894;42.544;1.516;2023-06-22T02:33:22;17.10;71.05
72772;SHT30;60894;42.544;1.516;2023-06-22T02:35:51;17.02;71.89
72772;SHT30;60894;42.544;1.516;2023-06-22T02:38:18;16.99;72.28
72772;SHT30;60894;42.544;1.516;2023-06-22T02:40:45;16.96;72.12
72772;SHT30;60894;42.544;1.516;2023-06-22T02:43:12;17.10;71.31
72772;SHT30;60894;42.544;1.516;2023-06-22T02:45:39;16.96;72.11
72772;SHT30;60894;42.544;1.516;2023-06-22T02:48:06;16.94;71.49
72772;SHT30;60894;42.544;1.516;2023-06-22T02:50:33;16.97;71.86
72772;SHT30;60894;42.544;1.516;2023-06-22T02:53:02;16.87;71.99
72772;SHT30;60894;42.544;1.516;2023-06-22T02:55:29;16.96;72.23
72772;SHT30;60894;42.544;1.516;2023-06-22T02:57:56;16.97;72.57
72772;SHT30;60894;42.544;1.516;2023-06-22T03:00:25;16.87;72.22
72772;SHT30;60894;42.544;1.516;2023-06-22T03:02:56;16.81;72.06
72772;SHT30;60894;42.544;1.516;2023-06-22T03:05:23;16.87;72.70
72772;SHT30;60894;42.544;1.516;2023-06-22T03:07:50;16.80;73.00
72772;SHT30;60894;42.544;1.516;2023-06-22T03:10:18;16.79;72.88
72772;SHT30;60894;42.544;1.516;2023-06-22T03:12:45;16.76;72.50
72772;SHT30;60894;42.544;1.516;2023-06-22T03:15:13;16.77;72.23
72772;SHT30;60894;42.544;1.516;2023-06-22T03:17:40;16.79;72.66
72772;SHT30;60894;42.544;1.516;2023-06-22T03:20:08;16.70;73.42
72772;SHT30;60894;42.544;1.516;2023-06-22T03:22:36;16.68;72.98
72772;SHT30;60894;42.544;1.516;2023-06-22T03:25:04;16.76;72.77
72772;SHT30;60894;42.544;1.516;2023-06-22T03:27:36;16.80;72.89
72772;SHT30;60894;42.544;1.516;2023-06-22T03:30:04;17.04;73.13
72772;SHT30;60894;42.544;1.516;2023-06-22T03:32:31;17.02;72.54
72772;SHT30;60894;42.544;1.516;2023-06-22T03:34:58;16.99;72.65
72772;SHT30;60894;42.544;1.516;2023-06-22T03:37:26;16.97;72.25
72772;SHT30;60894;42.544;1.516;2023-06-22T03:39:53;17.09;72.23
72772;SHT30;60894;42.544;1.516;2023-06-22T03:42:20;17.14;71.72
72772;SHT30;60894;42.544;1.516;2023-06-22T03:44:49;17.13;71.50
72772;SHT30;60894;42.544;1.516;2023-06-22T03:47:16;17.09;71.70
72772;SHT30;60894;42.544;1.516;2023-06-22T03:49:43;17.14;72.22
72772;SHT30;60894;42.544;1.516;2023-06-22T03:52:09;17.11;72.05
72772;SHT30;60894;42.544;1.516;2023-06-22T03:54:37;17.09;70.76
72772;SHT30;60894;42.544;1.516;2023-06-22T03:57:04;17.13;70.53
72772;SHT30;60894;42.544;1.516;2023-06-22T03:59:32;17.11;70.14
72772;SHT30;60894;42.544;1.516;2023-06-22T04:02:00;17.10;70.12
72772;SHT30;60894;42.544;1.516;2023-06-22T04:04:27;17.14;70.84
72772;SHT30;60894;42.544;1.516;2023-06-22T04:06:54;17.13;70.08
72772;SHT30;60894;42.544;1.516;2023-06-22T04:09:21;17.02;69.50
72772;SHT30;60894;42.544;1.516;2023-06-22T04:11:48;17.11;68.82
72772;SHT30;60894;42.544;1.516;2023-06-22T04:14:15;16.97;69.10
72772;SHT30;60894;42.544;1.516;2023-06-22T04:16:42;17.06;69.61
72772;SHT30;60894;42.544;1.516;2023-06-22T04:19:10;16.91;69.17
72772;SHT30;60894;42.544;1.516;2023-06-22T04:21:41;16.90;71.09
72772;SHT30;60894;42.544;1.516;2023-06-22T04:24:08;16.80;71.55
72772;SHT30;60894;42.544;1.516;2023-06-22T04:26:35;16.87;71.59
72772;SHT30;60894;42.544;1.516;2023-06-22T04:29:03;16.97;71.42
72772;SHT30;60894;42.544;1.516;2023-06-22T04:31:31;17.03;70.43
72772;SHT30;60894;42.544;1.516;2023-06-22T04:34:02;17.06;70.67
72772;SHT30;60894;42.544;1.516;2023-06-22T04:36:34;17.02;70.36
72772;SHT30;60894;42.544;1.516;2023-06-22T04:39:04;17.13;68.98
72772;SHT30;60894;42.544;1.516;2023-06-22T04:41:32;17.02;69.22
72772;SHT30;60894;42.544;1.516;2023-06-22T04:44:08;17.02;69.31
72772;SHT30;60894;42.544;1.516;2023-06-22T04:46:36;17.03;68.80
72772;SHT30;60894;42.544;1.516;2023-06-22T04:49:05;16.94;69.29
72772;SHT30;60894;42.544;1.516;2023-06-22T04:51:37;16.81;69.34
72772;SHT30;60894;42.544;1.516;2023-06-22T04:54:04;16.73;70.46
72772;SHT30;60894;42.544;1.516;2023-06-22T04:56:31;16.72;70.21
72772;SHT30;60894;42.544;1.516;2023-06-22T04:58:58;16.83;69.80
72772;SHT30;60894;42.544;1.516;2023-06-22T05:01:25;16.83;70.08
72772;SHT30;60894;42.544;1.516;2023-06-22T05:03:52;16.69;70.97
72772;SHT30;60894;42.544;1.516;2023-06-22T05:06:21;16.80;70.84
72772;SHT30;60894;42.544;1.516;2023-06-22T05:08:52;16.69;71.17
72772;SHT30;60894;42.544;1.516;2023-06-22T05:11:19;16.77;70.40
72772;SHT30;60894;42.544;1.516;2023-06-22T05:13:46;16.77;69.77
72772;SHT30;60894;42.544;1.516;2023-06-22T05:16:13;16.79;70.83
72772;SHT30;60894;42.544;1.516;2023-06-22T05:18:40;16.72;71.29
72772;SHT30;60894;42.544;1.516;2023-06-22T05:21:07;16.84;70.59
72772;SHT30;60894;42.544;1.516;2023-06-22T05:23:34;16.90;70.28
72772;SHT30;60894;42.544;1.516;2023-06-22T05:26:02;16.90;69.59
72772;SHT30;60894;42.544;1.516;2023-06-22T05:28:29;16.94;69.58
72772;SHT30;60894;42.544;1.516;2023-06-22T05:30:56;16.99;69.65
72772;SHT30;60894;42.544;1.516;2023-06-22T05:33:23;17.02;69.61
72772;SHT30;60894;42.544;1.516;2023-06-22T05:35:50;17.10;70.08
72772;SHT30;60894;42.544;1.516;2023-06-22T05:38:17;17.11;69.88
72772;SHT30;60894;42.544;1.516;2023-06-22T05:40:44;17.07;69.59
72772;SHT30;60894;42.544;1.516;2023-06-22T05:43:12;17.06;68.81
72772;SHT30;60894;42.544;1.516;2023-06-22T05:45:39;17.11;67.97
72772;SHT30;60894;42.544;1.516;2023-06-22T05:48:06;17.13;68.28
72772;SHT30;60894;42.544;1.516;2023-06-22T05:50:33;17.14;67.55
72772;SHT30;60894;42.544;1.516;2023-06-22T05:53:00;17.26;67.12
72772;SHT30;60894;42.544;1.516;2023-06-22T05:55:26;17.37;67.31
72772;SHT30;60894;42.544;1.516;2023-06-22T05:57:53;17.45;66.58
72772;SHT30;60894;42.544;1.516;2023-06-22T06:00:22;17.59;66.82
72772;SHT30;60894;42.544;1.516;2023-06-22T06:02:49;17.68;66.98
72772;SHT30;60894;42.544;1.516;2023-06-22T06:05:16;17.68;67.03
72772;SHT30;60894;42.544;1.516;2023-06-22T06:07:45;17.69;67.34
72772;SHT30;60894;42.544;1.516;2023-06-22T06:10:14;17.78;67.45
72772;SHT30;60894;42.544;1.516;2023-06-22T06:12:41;17.81;67.06
72772;SHT30;60894;42.544;1.516;2023-06-22T06:15:08;17.81;67.31
72772;SHT30;60894;42.544;1.516;2023-06-22T06:17:45;17.90;66.10
72772;SHT30;60894;42.544;1.516;2023-06-22T06:20:12;17.89;65.99
72772;SHT30;60894;42.544;1.516;2023-06-22T06:22:39;17.86;65.58
72772;SHT30;60894;42.544;1.516;2023-06-22T06:25:06;17.89;65.86
72772;SHT30;60894;42.544;1.516;2023-06-22T06:27:34;17.89;66.12
72772;SHT30;60894;42.544;1.516;2023-06-22T06:30:01;17.83;65.48
72772;SHT30;60894;42.544;1.516;2023-06-22T06:32:28;17.88;65.63
72772;SHT30;60894;42.544;1.516;2023-06-22T06:34:57;17.82;67.56
72772;SHT30;60894;42.544;1.516;2023-06-22T06:37:24;17.88;68.19
72772;SHT30;60894;42.544;1.516;2023-06-22T06:39:51;17.98;67.92
72772;SHT30;60894;42.544;1.516;2023-06-22T06:42:17;17.99;67.23
72772;SHT30;60894;42.544;1.516;2023-06-22T06:44:45;18.00;66.78
72772;SHT30;60894;42.544;1.516;2023-06-22T06:47:12;18.17;66.42
72772;SHT30;60894;42.544;1.516;2023-06-22T06:49:39;18.26;66.13
72772;SHT30;60894;42.544;1.516;2023-06-22T06:52:08;18.40;66.23
72772;SHT30;60894;42.544;1.516;2023-06-22T06:54:34;18.41;66.36
72772;SHT30;60894;42.544;1.516;2023-06-22T06:57:01;18.37;66.29
72772;SHT30;60894;42.544;1.516;2023-06-22T06:59:29;18.39;66.92
72772;SHT30;60894;42.544;1.516;2023-06-22T07:01:56;18.44;66.79
72772;SHT30;60894;42.544;1.516;2023-06-22T07:04:23;18.29;65.21
72772;SHT30;60894;42.544;1.516;2023-06-22T07:06:50;18.23;68.17
72772;SHT30;60894;42.544;1.516;2023-06-22T07:09:18;18.16;67.81
72772;SHT30;60894;42.544;1.516;2023-06-22T07:11:45;18.25;68.00
72772;SHT30;60894;42.544;1.516;2023-06-22T07:14:12;18.22;68.33
72772;SHT30;60894;42.544;1.516;2023-06-22T07:16:39;18.23;66.24
72772;SHT30;60894;42.544;1.516;2023-06-22T07:19:07;18.26;66.23
72772;SHT30;60894;42.544;1.516;2023-06-22T07:21:34;18.20;64.76
72772;SHT30;60894;42.544;1.516;2023-06-22T07:24:01;18.26;68.27
72772;SHT30;60894;42.544;1.516;2023-06-22T07:26:29;18.46;66.42
72772;SHT30;60894;42.544;1.516;2023-06-22T07:28:56;18.72;66.31
72772;SHT30;60894;42.544;1.516;2023-06-22T07:31:23;18.88;67.54
72772;SHT30;60894;42.544;1.516;2023-06-22T07:33:50;19.15;65.93
72772;SHT30;60894;42.544;1.516;2023-06-22T07:36:18;19.08;64.32
72772;SHT30;60894;42.544;1.516;2023-06-22T07:38:45;19.11;63.29
72772;SHT30;60894;42.544;1.516;2023-06-22T07:41:12;19.04;63.94
72772;SHT30;60894;42.544;1.516;2023-06-22T07:43:40;19.02;64.69
72772;SHT30;60894;42.544;1.516;2023-06-22T07:46:07;19.19;63.89
72772;SHT30;60894;42.544;1.516;2023-06-22T07:48:37;19.35;64.23
72772;SHT30;60894;42.544;1.516;2023-06-22T07:51:04;19.48;63.65
72772;SHT30;60894;42.544;1.516;2023-06-22T07:53:32;19.62;62.50
72772;SHT30;60894;42.544;1.516;2023-06-22T07:55:59;19.73;62.61
72772;SHT30;60894;42.544;1.516;2023-06-22T07:58:26;19.55;60.02
72772;SHT30;60894;42.544;1.516;2023-06-22T08:00:55;19.48;60.69
72772;SHT30;60894;42.544;1.516;2023-06-22T08:03:22;19.19;63.09
72772;SHT30;60894;42.544;1.516;2023-06-22T08:05:49;19.15;62.66
72772;SHT30;60894;42.544;1.516;2023-06-22T08:08:16;19.15;63.96
72772;SHT30;60894;42.544;1.516;2023-06-22T08:10:43;19.25;63.42
72772;SHT30;60894;42.544;1.516;2023-06-22T08:13:10;19.39;64.43
72772;SHT30;60894;42.544;1.516;2023-06-22T08:15:37;19.42;63.07
72772;SHT30;60894;42.544;1.516;2023-06-22T08:18:05;19.38;61.70
72772;SHT30;60894;42.544;1.516;2023-06-22T08:20:32;19.36;62.93
72772;SHT30;60894;42.544;1.516;2023-06-22T08:22:59;19.33;62.92
72772;SHT30;60894;42.544;1.516;2023-06-22T08:25:31;19.33;64.25
72772;SHT30;60894;42.544;1.516;2023-06-22T08:27:58;19.23;62.74
72772;SHT30;60894;42.544;1.516;2023-06-22T08:30:25;19.04;63.01
72772;SHT30;60894;42.544;1.516;2023-06-22T08:32:52;19.18;63.86
72772;SHT30;60894;42.544;1.516;2023-06-22T08:35:21;19.36;64.82
72772;SHT30;60894;42.544;1.516;2023-06-22T08:37:48;19.41;61.79
72772;SHT30;60894;42.544;1.516;2023-06-22T08:40:18;19.36;62.29
72772;SHT30;60894;42.544;1.516;2023-06-22T08:42:46;19.43;62.73
72772;SHT30;60894;42.544;1.516;2023-06-22T08:45:13;19.39;61.41
72772;SHT30;60894;42.544;1.516;2023-06-22T08:47:41;19.31;62.31
72772;SHT30;60894;42.544;1.516;2023-06-22T08:50:09;19.55;62.48
72772;SHT30;60894;42.544;1.516;2023-06-22T08:52:38;19.72;64.63
72772;SHT30;60894;42.544;1.516;2023-06-22T08:55:07;19.74;60.98
72772;SHT30;60894;42.544;1.516;2023-06-22T08:57:34;19.86;61.08
72772;SHT30;60894;42.544;1.516;2023-06-22T09:00:03;19.90;62.50
72772;SHT30;60894;42.544;1.516;2023-06-22T09:02:33;20.04;58.79
72772;SHT30;60894;42.544;1.516;2023-06-22T09:05:03;20.18;59.17
72772;SHT30;60894;42.544;1.516;2023-06-22T09:07:30;20.31;58.59
72772;SHT30;60894;42.544;1.516;2023-06-22T09:09:58;20.45;57.50
72772;SHT30;60894;42.544;1.516;2023-06-22T09:12:25;20.31;55.30
72772;SHT30;60894;42.544;1.516;2023-06-22T09:14:52;20.28;56.39
72772;SHT30;60894;42.544;1.516;2023-06-22T09:17:19;20.45;55.51
72772;SHT30;60894;42.544;1.516;2023-06-22T09:19:46;20.65;55.07
72772;SHT30;60894;42.544;1.516;2023-06-22T09:22:14;20.76;54.08
72772;SHT30;60894;42.544;1.516;2023-06-22T09:24:41;20.88;53.97
72772;SHT30;60894;42.544;1.516;2023-06-22T09:27:09;21.00;53.74
72772;SHT30;60894;42.544;1.516;2023-06-22T09:29:36;21.19;53.19
72772;SHT30;60894;42.544;1.516;2023-06-22T09:32:03;21.54;52.04
72772;SHT30;60894;42.544;1.516;2023-06-22T09:34:30;21.81;50.59
72772;SHT30;60894;42.544;1.516;2023-06-22T09:36:57;22.16;50.70
72772;SHT30;60894;42.544;1.516;2023-06-22T09:39:26;22.45;49.62
72772;SHT30;60894;42.544;1.516;2023-06-22T09:41:52;22.64;49.10
72772;SHT30;60894;42.544;1.516;2023-06-22T09:44:21;22.62;49.53
72772;SHT30;60894;42.544;1.516;2023-06-22T09:46:48;22.26;48.08
72772;SHT30;60894;42.544;1.516;2023-06-22T09:49:15;22.11;46.38
72772;SHT30;60894;42.544;1.516;2023-06-22T09:51:42;22.11;45.64
72772;SHT30;60894;42.544;1.516;2023-06-22T09:54:08;22.22;47.04
72772;SHT30;60894;42.544;1.516;2023-06-22T09:56:35;22.15;46.03
72772;SHT30;60894;42.544;1.516;2023-06-22T09:59:03;22.00;47.14
72772;SHT30;60894;42.544;1.516;2023-06-22T10:01:31;22.16;49.81
72772;SHT30;60894;42.544;1.516;2023-06-22T10:03:58;21.95;45.57
72772;SHT30;60894;42.544;1.516;2023-06-22T10:06:25;21.78;47.26
72772;SHT30;60894;42.544;1.516;2023-06-22T10:08:52;21.77;46.26
72772;SHT30;60894;42.544;1.516;2023-06-22T10:11:19;21.88;49.92
72772;SHT30;60894;42.544;1.516;2023-06-22T10:13:46;21.78;46.77
72772;SHT30;60894;42.544;1.516;2023-06-22T10:16:12;21.90;50.09
72772;SHT30;60894;42.544;1.516;2023-06-22T10:18:41;21.98;49.48
72772;SHT30;60894;42.544;1.516;2023-06-22T10:21:08;22.01;48.91
72772;SHT30;60894;42.544;1.516;2023-06-22T10:23:34;22.04;49.35
72772;SHT30;60894;42.544;1.516;2023-06-22T10:26:01;22.00;47.91
72772;SHT30;60894;42.544;1.516;2023-06-22T10:28:31;22.12;50.36
72772;SHT30;60894;42.544;1.516;2023-06-22T10:30:58;22.12;48.58
72772;SHT30;60894;42.544;1.516;2023-06-22T10:33:25;22.00;48.35
72772;SHT30;60894;42.544;1.516;2023-06-22T10:35:53;21.92;48.31
72772;SHT30;60894;42.544;1.516;2023-06-22T10:38:20;21.84;48.90
72772;SHT30;60894;42.544;1.516;2023-06-22T10:40:47;21.74;48.24
72772;SHT30;60894;42.544;1.516;2023-06-22T10:43:14;21.58;47.81
72772;SHT30;60894;42.544;1.516;2023-06-22T10:45:43;21.57;49.68
72772;SHT30;60894;42.544;1.516;2023-06-22T10:48:10;21.63;48.91
72772;SHT30;60894;42.544;1.516;2023-06-22T10:50:37;21.75;49.84
72772;SHT30;60894;42.544;1.516;2023-06-22T10:53:06;21.65;49.24
72772;SHT30;60894;42.544;1.516;2023-06-22T10:55:33;21.74;51.82
72772;SHT30;60894;42.544;1.516;2023-06-22T10:58:00;21.74;52.68
72772;SHT30;60894;42.544;1.516;2023-06-22T11:00:26;21.64;53.84
72772;SHT30;60894;42.544;1.516;2023-06-22T11:02:53;21.50;53.31
72772;SHT30;60894;42.544;1.516;2023-06-22T11:05:20;21.50;51.98
72772;SHT30;60894;42.544;1.516;2023-06-22T11:07:47;21.55;51.21
72772;SHT30;60894;42.544;1.516;2023-06-22T11:10:16;21.57;51.27
72772;SHT30;60894;42.544;1.516;2023-06-22T11:12:43;21.71;52.11
72772;SHT30;60894;42.544;1.516;2023-06-22T11:15:10;21.82;55.37
72772;SHT30;60894;42.544;1.516;2023-06-22T11:17:37;21.98;54.73
72772;SHT30;60894;42.544;1.516;2023-06-22T11:20:05;22.13;53.35
72772;SHT30;60894;42.544;1.516;2023-06-22T11:22:36;22.29;49.27
72772;SHT30;60894;42.544;1.516;2023-06-22T11:25:05;22.52;48.30
72772;SHT30;60894;42.544;1.516;2023-06-22T11:27:34;23.03;46.99
72772;SHT30;60894;42.544;1.516;2023-06-22T11:30:01;23.55;46.00
72772;SHT30;60894;42.544;1.516;2023-06-22T11:32:28;23.81;44.52
72772;SHT30;60894;42.544;1.516;2023-06-22T11:34:55;23.96;43.94
72772;SHT30;60894;42.544;1.516;2023-06-22T11:37:22;24.29;43.15
72772;SHT30;60894;42.544;1.516;2023-06-22T11:39:49;24.70;41.90
72772;SHT30;60894;42.544;1.516;2023-06-22T11:42:16;25.19;41.70
72772;SHT30;60894;42.544;1.516;2023-06-22T11:44:44;25.16;40.54
72772;SHT30;60894;42.544;1.516;2023-06-22T11:47:11;25.41;40.87
72772;SHT30;60894;42.544;1.516;2023-06-22T11:49:38;25.12;41.07
72772;SHT30;60894;42.544;1.516;2023-06-22T11:52:06;25.02;41.84
72772;SHT30;60894;42.544;1.516;2023-06-22T11:54:33;25.05;41.34
72772;SHT30;60894;42.544;1.516;2023-06-22T11:57:00;24.78;41.48
72772;SHT30;60894;42.544;1.516;2023-06-22T11:59:27;24.40;42.23
72772;SHT30;60894;42.544;1.516;2023-06-22T12:01:55;24.08;43.11
72772;SHT30;60894;42.544;1.516;2023-06-22T12:04:23;23.78;43.50
72772;SHT30;60894;42.544;1.516;2023-06-22T12:06:50;23.72;43.99
72772;SHT30;60894;42.544;1.516;2023-06-22T12:09:17;23.75;43.34
72772;SHT30;60894;42.544;1.516;2023-06-22T12:11:44;23.51;44.42
72772;SHT30;60894;42.544;1.516;2023-06-22T12:14:11;23.03;45.45
72772;SHT30;60894;42.544;1.516;2023-06-22T12:16:38;22.86;45.38
72772;SHT30;60894;42.544;1.516;2023-06-22T12:19:06;22.48;46.18
72772;SHT30;60894;42.544;1.516;2023-06-22T12:21:33;22.48;46.56
72772;SHT30;60894;42.544;1.516;2023-06-22T12:24:00;22.55;46.57
72772;SHT30;60894;42.544;1.516;2023-06-22T12:26:27;22.72;46.33
72772;SHT30;60894;42.544;1.516;2023-06-22T12:28:54;23.30;45.82
72772;SHT30;60894;42.544;1.516;2023-06-22T12:31:21;23.92;44.46
72772;SHT30;60894;42.544;1.516;2023-06-22T12:33:48;24.77;42.67
72772;SHT30;60894;42.544;1.516;2023-06-22T12:36:16;25.08;41.50
72772;SHT30;60894;42.544;1.516;2023-06-22T12:38:43;25.87;39.69
72772;SHT30;60894;42.544;1.516;2023-06-22T12:41:10;26.10;39.09
72772;SHT30;60894;42.544;1.516;2023-06-22T12:43:37;25.53;39.49
72772;SHT30;60894;42.544;1.516;2023-06-22T12:46:04;26.03;39.51
72772;SHT30;60894;42.544;1.516;2023-06-22T12:48:30;26.16;38.61
72772;SHT30;60894;42.544;1.516;2023-06-22T12:50:57;25.63;39.25
72772;SHT30;60894;42.544;1.516;2023-06-22T12:53:26;25.66;38.85
72772;SHT30;60894;42.544;1.516;2023-06-22T12:55:53;26.00;37.92
72772;SHT30;60894;42.544;1.516;2023-06-22T12:58:20;26.05;37.59
72772;SHT30;60894;42.544;1.516;2023-06-22T13:00:47;26.13;37.12
72772;SHT30;60894;42.544;1.516;2023-06-22T13:03:14;26.62;37.04
72772;SHT30;60894;42.544;1.516;2023-06-22T13:05:41;27.23;36.15
72772;SHT30;60894;42.544;1.516;2023-06-22T13:08:08;27.64;35.25
72772;SHT30;60894;42.544;1.516;2023-06-22T13:10:37;28.16;34.89
72772;SHT30;60894;42.544;1.516;2023-06-22T13:13:04;28.22;33.34
72772;SHT30;60894;42.544;1.516;2023-06-22T13:15:31;28.05;33.68
72772;SHT30;60894;42.544;1.516;2023-06-22T13:17:58;28.15;33.53
72772;SHT30;60894;42.544;1.516;2023-06-22T13:20:25;27.63;34.15
72772;SHT30;60894;42.544;1.516;2023-06-22T13:22:53;27.39;34.70
72772;SHT30;60894;42.544;1.516;2023-06-22T13:25:21;26.95;35.28
72772;SHT30;60894;42.544;1.516;2023-06-22T13:27:53;26.30;36.64
72772;SHT30;60894;42.544;1.516;2023-06-22T13:30:20;26.16;37.53
72772;SHT30;60894;42.544;1.516;2023-06-22T13:32:46;26.04;37.97
72772;SHT30;60894;42.544;1.516;2023-06-22T13:35:13;25.90;37.52
72772;SHT30;60894;42.544;1.516;2023-06-22T13:37:40;26.03;37.93
72772;SHT30;60894;42.544;1.516;2023-06-22T13:40:08;25.87;37.32
72772;SHT30;60894;42.544;1.516;2023-06-22T13:42:35;25.96;37.80
72772;SHT30;60894;42.544;1.516;2023-06-22T13:45:04;25.86;37.60
72772;SHT30;60894;42.544;1.516;2023-06-22T13:47:31;26.18;36.91
72772;SHT30;60894;42.544;1.516;2023-06-22T13:49:58;26.95;36.57
72772;SHT30;60894;42.544;1.516;2023-06-22T13:52:25;27.09;35.27
72772;SHT30;60894;42.544;1.516;2023-06-22T13:54:52;26.98;34.92
72772;SHT30;60894;42.544;1.516;2023-06-22T13:57:19;27.30;34.44
72772;SHT30;60894;42.544;1.516;2023-06-22T13:59:46;27.46;34.76
72772;SHT30;60894;42.544;1.516;2023-06-22T14:02:15;27.70;33.83
72772;SHT30;60894;42.544;1.516;2023-06-22T14:04:42;28.04;33.63
72772;SHT30;60894;42.544;1.516;2023-06-22T14:07:09;28.29;33.34
72772;SHT30;60894;42.544;1.516;2023-06-22T14:09:36;28.24;32.70
72772;SHT30;60894;42.544;1.516;2023-06-22T14:12:03;28.69;32.89
72772;SHT30;60894;42.544;1.516;2023-06-22T14:14:31;29.20;31.10
72772;SHT30;60894;42.544;1.516;2023-06-22T14:16:58;29.45;30.18
72772;SHT30;60894;42.544;1.516;2023-06-22T14:19:26;29.82;30.37
72772;SHT30;60894;42.544;1.516;2023-06-22T14:21:53;30.26;29.85
72772;SHT30;60894;42.544;1.516;2023-06-22T14:24:20;29.86;29.47
72772;SHT30;60894;42.544;1.516;2023-06-22T14:26:47;29.99;29.39
72772;SHT30;60894;42.544;1.516;2023-06-22T14:29:14;30.27;29.81
72772;SHT30;60894;42.544;1.516;2023-06-22T14:31:44;29.30;30.72
72772;SHT30;60894;42.544;1.516;2023-06-22T14:34:12;27.68;32.42
72772;SHT30;60894;42.544;1.516;2023-06-22T14:36:40;27.03;34.70
72772;SHT30;60894;42.544;1.516;2023-06-22T14:39:07;26.34;36.12
72772;SHT30;60894;42.544;1.516;2023-06-22T14:41:34;25.97;36.74
72772;SHT30;60894;42.544;1.516;2023-06-22T14:44:01;25.65;37.41
72772;SHT30;60894;42.544;1.516;2023-06-22T14:46:28;25.38;38.18
72772;SHT30;60894;42.544;1.516;2023-06-22T14:48:55;25.19;38.79
72772;SHT30;60894;42.544;1.516;2023-06-22T14:51:22;26.04;37.25
72772;SHT30;60894;42.544;1.516;2023-06-22T14:53:50;26.35;36.89
72772;SHT30;60894;42.544;1.516;2023-06-22T14:56:17;26.93;35.94
72772;SHT30;60894;42.544;1.516;2023-06-22T14:58:44;26.64;36.31
72772;SHT30;60894;42.544;1.516;2023-06-22T15:01:12;26.34;36.80
72772;SHT30;60894;42.544;1.516;2023-06-22T15:03:38;26.34;36.55
72772;SHT30;60894;42.544;1.516;2023-06-22T15:06:05;26.52;35.60
72772;SHT30;60894;42.544;1.516;2023-06-22T15:08:33;26.13;35.75
72772;SHT30;60894;42.544;1.516;2023-06-22T15:11:01;26.20;36.14
72772;SHT30;60894;42.544;1.516;2023-06-22T15:13:29;27.02;35.28
72772;SHT30;60894;42.544;1.516;2023-06-22T15:15:58;27.44;34.37
72772;SHT30;60894;42.544;1.516;2023-06-22T15:18:25;27.98;33.58
72772;SHT30;60894;42.544;1.516;2023-06-22T15:20:51;28.12;32.53
72772;SHT30;60894;42.544;1.516;2023-06-22T15:23:18;28.45;32.33
72772;SHT30;60894;42.544;1.516;2023-06-22T15:25:45;28.41;32.25
72772;SHT30;60894;42.544;1.516;2023-06-22T15:28:14;27.73;32.67
72772;SHT30;60894;42.544;1.516;2023-06-22T15:30:41;27.50;33.25
72772;SHT30;60894;42.544;1.516;2023-06-22T15:33:08;27.81;32.89